Time;durP1;ratioP1;P1;durP2;ratioP2;P2;SDS_P1;SDS_P2;PMS_P1;PMS_P2;Temp;Humidity;BMP_temperature;BMP_pressure;BME280_temperature;BME280_humidity;BME280_pressure;Samples;Min_cycle;Max_cycle;Signal;HPM_P1;HPM_P2
2021/09/10 00:00:48;;;;;;;18.60;15.32;;;;;;;12.25;72.73;100086.33;1792739;78;21100;-55
2021/09/10 00:03:14;;;;;;;19.00;13.70;;;;;;;12.24;72.74;100085.92;1797355;78;21057;-55
2021/09/10 00:05:41;;;;;;;18.73;13.65;;;;;;;12.24;72.66;100083.22;1795465;78;21133;-55
2021/09/10 00:08:08;;;;;;;16.27;11.68;;;;;;;12.22;72.68;100090.52;1793922;78;21141;-55
2021/09/10 00:10:34;;;;;;;17.45;13.60;;;;;;;12.19;72.75;100083.91;1793339;78;21073;-55
2021/09/10 00:13:01;;;;;;;13.88;11.80;;;;;;;12.18;72.84;100079.45;1729117;80;21141;-55
2021/09/10 00:15:28;;;;;;;21.62;15.20;;;;;;;12.18;72.92;100079.45;1738595;81;21172;-55
2021/09/10 00:17:55;;;;;;;24.35;16.73;;;;;;;12.18;72.83;100079.45;1742775;81;21152;-55
2021/09/10 00:20:23;;;;;;;18.00;14.98;;;;;;;12.17;72.78;100077.23;1742167;81;21096;-55
2021/09/10 00:22:49;;;;;;;19.95;15.93;;;;;;;12.15;72.83;100075.11;1746174;81;21091;-55
2021/09/10 00:25:15;;;;;;;19.05;15.13;;;;;;;12.14;72.88;100081.45;1748965;81;21897;-55
2021/09/10 00:27:42;;;;;;;20.52;16.77;;;;;;;12.12;72.80;100077.95;1745923;81;21521;-54
2021/09/10 00:30:09;;;;;;;18.75;13.30;;;;;;;12.07;72.73;100076.84;1793727;78;21070;-55
2021/09/10 00:32:36;;;;;;;17.00;13.35;;;;;;;12.05;72.80;100084.13;1796648;78;21064;-55
2021/09/10 00:35:03;;;;;;;20.85;12.78;;;;;;;12.03;72.86;100088.72;1796861;78;21021;-55
2021/09/10 00:37:31;;;;;;;16.23;12.65;;;;;;;12.01;72.90;100087.91;1797705;78;21057;-55
2021/09/10 00:39:57;;;;;;;18.37;12.63;;;;;;;12.00;72.84;100083.93;1732511;80;21299;-54
2021/09/10 00:42:23;;;;;;;15.93;14.05;;;;;;;11.99;72.77;100087.09;1755673;80;21567;-54
2021/09/10 00:44:51;;;;;;;18.92;14.68;;;;;;;11.97;72.72;100079.58;1755604;79;21123;-54
2021/09/10 00:47:17;;;;;;;18.57;14.63;;;;;;;11.95;72.76;100084.17;1754563;80;21054;-54
2021/09/10 00:49:44;;;;;;;23.25;16.27;;;;;;;11.93;72.63;100087.41;1754229;80;21016;-53
2021/09/10 00:52:10;;;;;;;19.35;14.83;;;;;;;11.90;72.58;100089.40;1756036;80;21069;-54
2021/09/10 00:54:37;;;;;;;18.48;13.93;;;;;;;11.85;72.59;100083.33;1756177;80;22790;-53
2021/09/10 00:57:05;;;;;;;23.07;15.38;;;;;;;11.79;72.76;100080.47;1756090;80;21093;-54
2021/09/10 00:59:31;;;;;;;20.68;12.68;;;;;;;11.77;72.94;100086.40;1796654;78;21045;-54
2021/09/10 01:01:58;;;;;;;19.52;12.23;;;;;;;11.77;72.94;100086.40;1794987;78;21056;-54
2021/09/10 01:04:25;;;;;;;15.25;12.18;;;;;;;11.75;73.02;100084.23;1801216;78;21008;-54
2021/09/10 01:06:53;;;;;;;17.40;12.40;;;;;;;11.74;73.12;100091.89;1798169;78;21135;-54
2021/09/10 01:09:21;;;;;;;16.10;12.10;;;;;;;11.74;73.20;100090.55;1732985;80;21149;-54
2021/09/10 01:11:50;;;;;;;15.38;11.88;;;;;;;11.75;73.19;100093.68;1755217;80;21123;-53
2021/09/10 01:14:18;;;;;;;15.45;11.83;;;;;;;11.75;73.15;100096.38;1755036;80;22065;-53
2021/09/10 01:16:46;;;;;;;15.83;12.15;;;;;;;11.74;73.03;100094.59;1757096;80;21035;-53
2021/09/10 01:19:24;;;;;;;18.95;13.28;;;;;;;11.73;73.02;100087.48;1752340;80;21034;-53
2021/09/10 01:21:56;;;;;;;14.15;11.20;;;;;;;11.70;73.12;100087.61;1758328;80;21115;-53
2021/09/10 01:24:35;;;;;;;16.30;12.10;;;;;;;11.69;73.07;100089.91;1746488;80;21081;-53
2021/09/10 01:27:03;;;;;;;15.75;10.78;;;;;;;11.65;72.96;100091.02;1745826;81;21065;-53
2021/09/10 01:29:31;;;;;;;16.27;9.88;;;;;;;11.62;72.94;100093.84;1797741;78;20962;-53
2021/09/10 01:31:57;;;;;;;15.40;10.90;;;;;;;11.59;73.01;100092.16;1771565;78;21091;-53
2021/09/10 01:34:23;;;;;;;16.42;10.70;;;;;;;11.57;73.12;100097.23;1795956;78;20927;-53
2021/09/10 01:36:50;;;;;;;18.12;11.48;;;;;;;11.54;73.18;100096.02;1738146;80;20937;-53
2021/09/10 01:39:16;;;;;;;17.65;11.25;;;;;;;11.54;73.22;100098.72;1745067;80;20946;-53
2021/09/10 01:43:23;;;;;;;14.83;11.47;;;;;;;11.55;73.24;100085.17;1845304;75;22631;-54
2021/09/10 01:45:50;;;;;;;15.50;12.23;;;;;;;11.50;73.29;100087.66;1807816;77;21037;-54
2021/09/10 01:48:16;;;;;;;13.30;10.28;;;;;;;11.49;73.31;100088.60;1805520;77;21140;-55
2021/09/10 01:50:44;;;;;;;13.03;11.20;;;;;;;11.47;73.33;100082.44;1799310;77;20965;-54
2021/09/10 01:53:10;;;;;;;17.73;9.73;;;;;;;11.43;73.33;100087.55;1808547;77;21052;-54
2021/09/10 01:55:36;;;;;;;11.75;8.63;;;;;;;11.42;73.31;100085.80;1810224;77;21703;-54
2021/09/10 01:58:03;;;;;;;10.95;8.83;;;;;;;11.41;73.27;100086.27;1762660;78;21114;-54
2021/09/10 02:00:31;;;;;;;11.20;8.23;;;;;;;11.39;73.23;100086.84;1768818;78;21486;-54
2021/09/10 02:02:57;;;;;;;9.88;7.85;;;;;;;11.39;73.39;100084.14;1731319;80;21702;-54
2021/09/10 02:05:23;;;;;;;12.35;8.45;;;;;;;11.38;73.35;100077.87;1755328;79;21239;-54
2021/09/10 02:07:49;;;;;;;13.43;9.83;;;;;;;11.38;73.36;100079.69;1755314;79;21120;-54
2021/09/10 02:10:17;;;;;;;12.13;9.38;;;;;;;11.38;73.37;100083.73;1754175;79;21065;-55
2021/09/10 02:12:44;;;;;;;12.13;9.65;;;;;;;11.38;73.37;100087.78;1757496;79;21466;-54
2021/09/10 02:15:11;;;;;;;14.28;11.48;;;;;;;11.37;73.30;100084.20;1757997;79;21476;-54
2021/09/10 02:17:39;;;;;;;12.37;10.00;;;;;;;11.35;73.24;100087.44;1755658;79;20909;-54
2021/09/10 02:20:08;;;;;;;17.50;10.98;;;;;;;11.30;73.15;100089.48;1762203;79;21029;-54
2021/09/10 02:22:35;;;;;;;13.20;9.13;;;;;;;11.26;73.08;100084.28;1757586;79;21019;-54
2021/09/10 02:25:01;;;;;;;12.00;8.43;;;;;;;11.22;72.97;100089.42;1751802;79;21100;-54
2021/09/10 02:27:27;;;;;;;11.57;8.90;;;;;;;11.16;72.98;100084.30;1746843;79;21121;-54
2021/09/10 02:29:53;;;;;;;10.78;8.25;;;;;;;11.14;73.09;100084.39;1749926;79;21479;-54
2021/09/10 02:32:20;;;;;;;12.68;8.53;;;;;;;11.13;73.14;100088.50;1743443;79;21688;-54
2021/09/10 02:34:46;;;;;;;11.20;8.85;;;;;;;11.14;73.21;100086.20;1730668;79;21111;-54
2021/09/10 02:37:13;;;;;;;14.00;9.70;;;;;;;11.16;73.25;100086.52;1734122;79;21104;-54
2021/09/10 02:39:40;;;;;;;11.22;9.78;;;;;;;11.16;73.22;100085.17;1739546;79;21119;-54
2021/09/10 02:42:07;;;;;;;13.50;9.35;;;;;;;11.17;73.03;100086.92;1738293;79;20950;-54
2021/09/10 02:47:10;;;;;;;11.17;9.93;;;;;;;11.16;72.90;100084.30;1862893;74;22058;-54
2021/09/10 02:49:36;;;;;;;12.43;10.70;;;;;;;11.09;72.78;100080.13;1834592;77;21013;-54
2021/09/10 02:52:05;;;;;;;11.80;9.18;;;;;;;11.04;72.67;100084.39;1830247;77;21245;-54
2021/09/10 02:54:32;;;;;;;12.05;8.48;;;;;;;11.00;72.63;100086.80;1832514;76;20952;-54
2021/09/10 02:56:59;;;;;;;11.35;9.35;;;;;;;10.94;72.66;100088.44;1837657;77;21076;-54
2021/09/10 02:59:26;;;;;;;10.53;8.13;;;;;;;10.91;72.71;100088.09;1832249;77;21475;-55
2021/09/10 03:01:54;;;;;;;9.23;7.70;;;;;;;10.90;72.83;100082.77;1830184;77;21049;-54
2021/09/10 03:04:20;;;;;;;11.15;9.48;;;;;;;10.89;72.87;100083.70;1830901;77;21145;-54
2021/09/10 03:06:47;;;;;;;12.95;8.33;;;;;;;10.88;72.89;100076.12;1833799;77;21046;-54
2021/09/10 03:09:14;;;;;;;13.80;9.00;;;;;;;10.89;72.84;100081.89;1831719;77;21067;-54
2021/09/10 03:11:42;;;;;;;11.15;8.63;;;;;;;10.89;72.74;100075.63;1832433;77;21087;-54
2021/09/10 03:14:08;;;;;;;10.72;9.05;;;;;;;10.87;72.64;100072.16;1834547;77;22045;-54
2021/09/10 03:16:35;;;;;;;13.35;9.03;;;;;;;10.83;72.53;100071.40;1837225;75;21499;-54
2021/09/10 03:19:03;;;;;;;9.45;7.75;;;;;;;10.78;72.50;100074.78;1832890;77;21568;-54
2021/09/10 03:21:29;;;;;;;10.60;7.25;;;;;;;10.75;72.49;100075.37;1833325;76;21583;-54
2021/09/10 03:26:41;;;;;;;9.87;6.67;;;;;;;10.72;72.60;100071.48;1825697;76;23625;-54
2021/09/10 03:29:07;;;;;;;11.95;7.50;;;;;;;10.66;72.64;100074.42;1788709;77;21577;-54
2021/09/10 03:31:33;;;;;;;10.63;7.12;;;;;;;10.63;72.68;100068.22;1788220;77;21652;-54
2021/09/10 03:34:00;;;;;;;12.30;7.95;;;;;;;10.63;72.71;100070.91;1772745;78;21663;-54
2021/09/10 03:36:28;;;;;;;13.20;8.33;;;;;;;10.61;72.66;100074.17;1777904;78;21349;-54
2021/09/10 03:38:54;;;;;;;11.73;8.18;;;;;;;10.59;72.69;100071.13;1769321;78;21104;-54
2021/09/10 03:41:21;;;;;;;6.87;6.10;;;;;;;10.54;72.73;100078.07;1774211;78;21098;-54
2021/09/10 03:43:52;;;;;;;10.15;6.45;;;;;;;10.53;72.72;100074.97;1772397;78;21130;-54
2021/09/10 03:46:15;;;;;;;9.60;7.58;;;;;;;10.54;72.74;100082.11;1761181;78;21088;-54
2021/09/10 03:48:42;;;;;;;7.15;5.42;;;;;;;10.54;72.82;100083.45;1762876;78;21068;-54
2021/09/10 03:51:08;;;;;;;10.13;5.75;;;;;;;10.56;72.81;100084.70;1762083;78;21061;-57
2021/09/10 03:53:37;;;;;;;7.80;7.03;;;;;;;10.57;72.91;100087.34;1760044;78;21059;-54
2021/09/10 03:56:04;;;;;;;10.20;8.15;;;;;;;10.57;73.02;100075.70;1761092;78;21143;-54
2021/09/10 03:58:30;;;;;;;9.33;7.45;;;;;;;10.58;73.12;100082.36;1770065;78;21024;-54
2021/09/10 04:00:57;;;;;;;9.48;7.55;;;;;;;10.60;73.20;100079.61;1768958;78;21104;-54
2021/09/10 04:03:24;;;;;;;12.53;8.35;;;;;;;10.60;73.25;100086.34;1768664;78;21072;-54
2021/09/10 04:05:51;;;;;;;8.18;7.17;;;;;;;10.60;73.31;100080.95;1761727;78;21039;-54
2021/09/10 04:08:19;;;;;;;7.10;5.83;;;;;;;10.60;73.43;100085.00;1764488;78;21059;-54
2021/09/10 04:10:48;;;;;;;6.22;5.40;;;;;;;10.61;73.61;100080.89;1766753;78;21437;-54
2021/09/10 04:13:16;;;;;;;5.58;4.87;;;;;;;10.63;73.81;100076.80;1763878;78;21124;-54
2021/09/10 04:15:44;;;;;;;9.48;5.22;;;;;;;10.67;73.97;100078.87;1765859;78;21138;-54
2021/09/10 04:18:10;;;;;;;6.60;4.67;;;;;;;10.70;74.13;100082.78;1761563;78;21134;-54
2021/09/10 04:20:38;;;;;;;6.70;5.33;;;;;;;10.75;74.23;100088.36;1762058;78;21178;-54
2021/09/10 04:23:04;;;;;;;7.55;6.05;;;;;;;10.81;74.34;100081.83;1761641;78;21079;-53
2021/09/10 04:25:31;;;;;;;9.20;7.17;;;;;;;10.86;74.46;100081.17;1756514;78;21286;-53
2021/09/10 04:27:57;;;;;;;9.40;7.08;;;;;;;10.91;74.62;100081.83;1735143;79;21052;-53
2021/09/10 04:30:24;;;;;;;9.03;6.40;;;;;;;10.97;74.73;100083.77;1752609;79;21064;-53
2021/09/10 04:32:51;;;;;;;6.67;6.08;;;;;;;11.05;74.95;100086.15;1737280;79;21136;-53
2021/09/10 04:35:17;;;;;;;6.90;6.05;;;;;;;11.14;75.12;100084.39;1753878;79;21764;-54
2021/09/10 04:37:44;;;;;;;10.25;5.67;;;;;;;11.29;75.23;100082.34;1708018;81;21076;-53
2021/09/10 04:40:12;;;;;;;6.15;4.72;;;;;;;11.51;75.25;100079.50;1751644;79;21099;-54
2021/09/10 04:42:38;;;;;;;7.50;6.12;;;;;;;11.78;75.09;100081.88;1716020;81;20929;-53
2021/09/10 04:45:06;;;;;;;6.78;6.08;;;;;;;12.04;74.66;100081.50;1736336;79;22202;-54
2021/09/10 04:47:32;;;;;;;13.85;5.65;;;;;;;12.26;74.19;100075.42;1741157;79;20950;-53
2021/09/10 04:49:59;;;;;;;8.25;6.58;;;;;;;12.41;73.80;100073.33;1757510;79;20969;-53
2021/09/10 04:52:25;;;;;;;7.45;6.55;;;;;;;12.55;73.38;100075.79;1717213;81;20973;-53
2021/09/10 04:54:53;;;;;;;9.58;6.35;;;;;;;12.63;73.18;100072.22;1757249;79;20998;-53
2021/09/10 04:57:20;;;;;;;12.43;6.78;;;;;;;12.70;73.34;100070.47;1741629;79;21796;-53
2021/09/10 04:59:47;;;;;;;12.55;7.62;;;;;;;12.76;73.55;100070.65;1756930;79;21369;-53
2021/09/10 05:02:14;;;;;;;10.70;7.00;;;;;;;12.81;73.74;100068.09;1741479;79;20925;-53
2021/09/10 05:04:40;;;;;;;8.53;5.95;;;;;;;12.85;73.98;100069.66;1757268;79;20961;-53
2021/09/10 05:07:08;;;;;;;6.00;5.40;;;;;;;12.91;74.22;100068.48;1738120;79;20912;-53
2021/09/10 05:09:34;;;;;;;11.93;7.33;;;;;;;12.99;74.55;100071.66;1714885;81;21285;-53
2021/09/10 05:12:04;;;;;;;6.95;5.65;;;;;;;13.07;74.85;100066.72;1748241;79;21593;-54
2021/09/10 05:14:30;;;;;;;9.50;6.72;;;;;;;13.16;75.13;100072.14;1711868;81;20862;-53
2021/09/10 05:16:58;;;;;;;10.13;7.22;;;;;;;13.28;75.35;100070.58;1757751;79;20882;-53
2021/09/10 05:19:24;;;;;;;11.45;9.13;;;;;;;13.40;75.63;100067.23;1738199;79;20977;-54
2021/09/10 05:21:50;;;;;;;12.88;9.55;;;;;;;13.54;75.80;100068.68;1753593;79;21179;-54
2021/09/10 05:24:18;;;;;;;14.87;9.83;;;;;;;13.67;75.98;100071.12;1753997;79;21278;-54
2021/09/10 05:26:45;;;;;;;12.98;8.05;;;;;;;13.81;76.01;100075.73;1719164;81;21588;-54
2021/09/10 05:29:11;;;;;;;12.80;8.73;;;;;;;13.93;75.88;100073.70;1760445;78;21052;-54
2021/09/10 05:31:37;;;;;;;15.20;8.88;;;;;;;14.07;75.78;100064.30;1761908;78;21104;-54
2021/09/10 05:34:04;;;;;;;18.50;9.53;;;;;;;14.36;74.91;100069.39;1763602;78;21190;-54
2021/09/10 05:36:30;;;;;;;15.60;9.30;;;;;;;14.36;74.91;100069.39;1762250;78;21701;-54
2021/09/10 05:38:56;;;;;;;14.28;10.23;;;;;;;14.51;74.65;100059.03;1761007;78;21140;-54
2021/09/10 05:41:23;;;;;;;16.00;10.40;;;;;;;14.66;74.19;100059.95;1761972;78;21103;-53
2021/09/10 05:43:50;;;;;;;16.07;11.55;;;;;;;14.82;73.50;100066.66;1761937;78;21302;-54
2021/09/10 05:46:16;;;;;;;18.02;11.68;;;;;;;14.94;72.92;100068.64;1763735;78;22345;-53
2021/09/10 05:48:44;;;;;;;17.98;11.43;;;;;;;15.11;72.49;100065.77;1758890;79;21007;-53
2021/09/10 05:51:11;;;;;;;17.55;11.70;;;;;;;15.25;71.98;100063.54;1759060;80;21102;-53
2021/09/10 05:53:39;;;;;;;19.82;11.65;;;;;;;15.40;71.50;100070.70;1760291;78;21103;-54
2021/09/10 05:56:06;;;;;;;16.60;10.53;;;;;;;15.52;70.86;100064.04;1774283;78;20944;-53
2021/09/10 05:58:33;;;;;;;20.75;11.50;;;;;;;15.66;70.55;100059.59;1770022;78;21075;-54
2021/09/10 06:00:59;;;;;;;16.27;11.73;;;;;;;15.78;69.91;100061.05;1769366;78;21108;-53
2021/09/10 06:03:25;;;;;;;27.32;13.98;;;;;;;15.93;69.46;100066.44;1737621;79;21049;-54
2021/09/10 06:05:51;;;;;;;22.35;14.45;;;;;;;16.05;69.18;100059.73;1708131;81;21073;-53
2021/09/10 06:08:18;;;;;;;25.52;13.55;;;;;;;16.16;68.70;100059.88;1737545;79;21076;-54
2021/09/10 06:10:46;;;;;;;20.95;12.58;;;;;;;16.28;68.17;100062.27;1764917;78;21420;-54
2021/09/10 06:13:13;;;;;;;20.32;12.07;;;;;;;16.39;67.52;100069.23;1763363;78;21057;-54
2021/09/10 06:15:39;;;;;;;12.60;10.03;;;;;;;16.49;66.96;100069.00;1759195;78;21041;-54
2021/09/10 06:18:05;;;;;;;15.15;9.63;;;;;;;16.58;66.34;100066.14;1761899;78;21179;-54
2021/09/10 06:20:32;;;;;;;16.57;10.63;;;;;;;16.67;65.65;100071.48;1761742;78;21068;-54
2021/09/10 06:22:59;;;;;;;15.78;10.05;;;;;;;16.73;65.24;100077.36;1762969;78;22865;-53
2021/09/10 06:25:25;;;;;;;12.30;9.68;;;;;;;16.81;64.85;100072.75;1761035;78;21260;-55
2021/09/10 06:27:51;;;;;;;18.05;10.90;;;;;;;16.86;64.10;100070.09;1767391;78;21675;-55
2021/09/10 06:30:18;;;;;;;17.07;9.65;;;;;;;16.94;64.04;100072.27;1762157;78;21754;-55
2021/09/10 06:32:44;;;;;;;15.65;9.18;;;;;;;16.99;63.81;100079.64;1765279;78;21084;-55
2021/09/10 06:35:11;;;;;;;15.15;10.50;;;;;;;17.05;63.62;100073.77;1761296;78;21146;-54
2021/09/10 06:37:37;;;;;;;10.78;8.63;;;;;;;17.11;63.68;100082.84;1736612;79;21099;-54
2021/09/10 06:40:05;;;;;;;15.03;9.43;;;;;;;17.20;63.52;100086.28;1760290;78;21068;-55
2021/09/10 06:42:31;;;;;;;14.55;8.35;;;;;;;17.28;63.43;100083.89;1767554;78;21065;-55
2021/09/10 06:44:58;;;;;;;13.05;7.58;;;;;;;17.39;63.16;100085.86;1761869;78;21036;-55
2021/09/10 06:47:25;;;;;;;11.38;8.25;;;;;;;17.48;63.02;100086.58;1764713;78;21099;-55
2021/09/10 06:49:51;;;;;;;7.53;6.60;;;;;;;17.58;62.69;100078.63;1760674;78;21462;-55
2021/09/10 06:52:18;;;;;;;8.68;7.37;;;;;;;17.68;61.67;100086.55;1761956;78;21993;-55
2021/09/10 06:54:45;;;;;;;7.80;7.03;;;;;;;17.78;61.07;100092.20;1761900;78;21613;-55
2021/09/10 06:57:11;;;;;;;16.55;9.03;;;;;;;17.84;60.82;100089.90;1764073;78;21082;-55
2021/09/10 06:59:38;;;;;;;9.30;6.97;;;;;;;17.91;60.64;100088.46;1760563;78;22208;-55
2021/09/10 07:02:04;;;;;;;11.05;7.42;;;;;;;17.99;59.88;100090.63;1757533;78;21538;-55
2021/09/10 07:04:31;;;;;;;10.90;7.53;;;;;;;18.05;59.73;100093.76;1762305;78;21111;-54
2021/09/10 07:06:58;;;;;;;13.43;8.80;;;;;;;18.12;59.79;100089.59;1762656;78;21068;-55
2021/09/10 07:09:24;;;;;;;11.35;7.97;;;;;;;18.18;59.37;100090.14;1764316;78;21076;-55
2021/09/10 07:11:52;;;;;;;9.58;6.97;;;;;;;18.24;59.38;100089.19;1759763;78;22375;-55
2021/09/10 07:14:20;;;;;;;11.05;7.40;;;;;;;18.31;59.35;100093.67;1765269;78;22593;-55
2021/09/10 07:16:48;;;;;;;16.25;8.55;;;;;;;18.36;59.00;100086.92;1762911;78;20917;-55
2021/09/10 07:19:15;;;;;;;11.08;7.95;;;;;;;18.43;58.92;100091.41;1766257;78;20969;-55
2021/09/10 07:21:43;;;;;;;9.60;6.97;;;;;;;18.48;58.72;100092.79;1760385;78;21087;-55
2021/09/10 07:24:09;;;;;;;11.30;6.95;;;;;;;18.53;58.52;100089.73;1712944;81;22124;-54
2021/09/10 07:26:35;;;;;;;11.18;5.55;;;;;;;18.62;58.56;100095.02;1748113;79;22158;-55
2021/09/10 07:29:02;;;;;;;11.03;7.25;;;;;;;18.69;58.88;100094.92;1750801;80;20923;-54
2021/09/10 07:31:28;;;;;;;11.83;7.95;;;;;;;18.78;58.80;100091.49;1764369;80;20872;-55
2021/09/10 07:33:55;;;;;;;7.28;6.55;;;;;;;18.85;58.14;100099.58;1750967;80;21551;-55
2021/09/10 07:36:21;;;;;;;7.97;5.80;;;;;;;18.93;58.11;100097.61;1765330;80;21405;-55
2021/09/10 07:38:48;;;;;;;7.08;6.08;;;;;;;19.02;58.03;100094.17;1752602;80;20903;-55
2021/09/10 07:41:14;;;;;;;10.43;5.97;;;;;;;19.09;57.44;100092.21;1752828;80;21464;-55
2021/09/10 07:43:40;;;;;;;5.78;4.28;;;;;;;19.18;57.21;100095.59;1766500;80;21386;-55
2021/09/10 07:46:07;;;;;;;12.05;4.08;;;;;;;19.24;56.23;100095.09;1737412;82;21444;-55
2021/09/10 07:48:33;;;;;;;9.78;4.30;;;;;;;19.33;56.06;100101.70;1765077;80;21331;-56
2021/09/10 07:51:00;;;;;;;4.30;3.67;;;;;;;19.40;55.03;100096.61;1750259;80;21002;-55
2021/09/10 07:53:26;;;;;;;4.60;3.80;;;;;;;19.45;54.78;100099.38;1763637;80;20910;-55
2021/09/10 07:55:53;;;;;;;4.83;3.05;;;;;;;19.52;54.30;100095.69;1737127;80;20965;-55
2021/09/10 07:58:20;;;;;;;7.53;4.72;;;;;;;19.60;54.52;100094.58;1766266;80;21919;-55
2021/09/10 08:00:47;;;;;;;6.40;3.37;;;;;;;19.70;54.01;100087.88;1718894;82;21783;-55
2021/09/10 08:03:13;;;;;;;9.95;4.45;;;;;;;19.77;53.33;100080.44;1763306;79;21112;-55
2021/09/10 08:05:40;;;;;;;5.67;3.58;;;;;;;19.84;52.93;100086.26;1759929;80;21299;-55
2021/09/10 08:08:06;;;;;;;7.20;3.22;;;;;;;19.92;53.45;100089.23;1750201;80;21117;-55
2021/09/10 08:10:33;;;;;;;4.33;3.05;;;;;;;20.01;52.50;100082.52;1749271;80;21326;-55
2021/09/10 08:12:59;;;;;;;5.45;3.35;;;;;;;20.11;52.58;100080.41;1761985;80;22432;-55
2021/09/10 08:15:27;;;;;;;6.97;3.30;;;;;;;20.21;52.08;100074.55;1723920;82;22032;-55
2021/09/10 08:17:55;;;;;;;5.85;2.83;;;;;;;20.30;51.41;100074.66;1761072;80;21152;-55
2021/09/10 08:20:22;;;;;;;3.65;2.55;;;;;;;20.38;51.34;100073.55;1721426;80;21056;-55
2021/09/10 08:22:50;;;;;;;6.42;2.60;;;;;;;20.46;50.13;100072.04;1762344;80;21050;-55
2021/09/10 08:25:19;;;;;;;6.45;2.47;;;;;;;20.52;49.70;100076.48;1723108;80;21107;-56
2021/09/10 08:27:45;;;;;;;6.58;2.50;;;;;;;20.59;48.91;100069.50;1764596;79;21447;-55
2021/09/10 08:30:12;;;;;;;5.80;2.30;;;;;;;20.66;48.99;100069.88;1770586;79;21641;-55
2021/09/10 08:32:39;;;;;;;3.98;2.35;;;;;;;20.73;48.80;100063.74;1771997;79;21093;-55
2021/09/10 08:35:07;;;;;;;5.00;1.90;;;;;;;20.81;48.16;100060.84;1771264;79;21641;-55
2021/09/10 08:37:33;;;;;;;2.92;2.00;;;;;;;20.86;47.93;100059.94;1772141;79;21092;-55
2021/09/10 08:40:01;;;;;;;7.95;2.22;;;;;;;20.90;48.02;100056.83;1771824;79;21046;-55
2021/09/10 08:42:27;;;;;;;2.42;1.85;;;;;;;20.95;47.71;100060.02;1774660;79;21464;-55
2021/09/10 08:44:54;;;;;;;6.70;2.37;;;;;;;20.98;47.37;100057.03;1755586;80;21733;-55
2021/09/10 08:47:20;;;;;;;5.80;1.95;;;;;;;21.02;47.91;100055.74;1754874;80;21085;-55
2021/09/10 08:49:47;;;;;;;7.97;2.50;;;;;;;21.09;48.02;100054.73;1773879;79;21150;-55
2021/09/10 08:52:15;;;;;;;7.60;1.75;;;;;;;21.18;47.09;100047.09;1780276;79;21069;-55
2021/09/10 08:54:42;;;;;;;5.60;1.52;;;;;;;21.29;46.52;100048.40;1773952;79;21104;-55
2021/09/10 08:57:09;;;;;;;2.17;1.45;;;;;;;21.37;46.93;100047.72;1773422;79;21489;-55
2021/09/10 08:59:36;;;;;;;4.50;2.20;;;;;;;21.43;46.91;100041.23;1745357;81;20985;-55
2021/09/10 09:02:03;;;;;;;5.50;1.92;;;;;;;21.52;47.19;100035.44;1773866;79;22382;-55
2021/09/10 09:04:35;;;;;;;2.62;1.62;;;;;;;21.59;45.98;100029.77;1759028;80;21021;-55
2021/09/10 09:07:05;;;;;;;2.30;1.80;;;;;;;21.64;45.52;100034.31;1759383;80;21061;-55
2021/09/10 09:09:46;;;;;;;2.70;2.00;;;;;;;21.69;45.72;100025.17;1776324;79;21041;-55
2021/09/10 09:12:28;;;;;;;7.85;1.87;;;;;;;21.75;45.38;100032.86;1757929;80;21077;-56
2021/09/10 09:14:58;;;;;;;1.85;1.55;;;;;;;21.77;44.74;100024.52;1773156;79;22969;-56
2021/09/10 09:17:35;;;;;;;3.87;2.08;;;;;;;21.76;43.72;100016.79;1755190;80;21076;-55
2021/09/10 09:20:27;;;;;;;2.72;1.60;;;;;;;21.76;44.61;100019.53;1760029;80;21053;-55
2021/09/10 09:23:11;;;;;;;2.17;1.87;;;;;;;21.79;44.85;100019.23;1774103;79;20908;-55
2021/09/10 09:25:47;;;;;;;3.22;1.22;;;;;;;21.84;44.99;100017.47;1774098;79;21038;-56
2021/09/10 09:28:28;;;;;;;3.60;1.37;;;;;;;21.93;44.69;100018.50;1776534;79;21106;-55
2021/09/10 09:30:59;;;;;;;2.92;1.07;;;;;;;22.01;43.63;100018.20;1759575;80;20930;-56
2021/09/10 09:33:30;;;;;;;3.27;1.20;;;;;;;22.09;42.07;100018.86;1769579;79;21073;-55
2021/09/10 09:36:00;;;;;;;2.12;1.30;;;;;;;22.15;42.41;100015.05;1734416;80;21072;-56
2021/09/10 09:38:32;;;;;;;3.77;1.37;;;;;;;22.22;42.76;100015.34;1772339;79;21101;-55
2021/09/10 09:41:08;;;;;;;5.03;1.55;;;;;;;22.29;43.35;100008.27;1773083;79;22351;-54
2021/09/10 09:43:43;;;;;;;3.40;1.60;;;;;;;22.37;43.17;100005.69;1775756;79;20891;-55
2021/09/10 09:46:14;;;;;;;3.75;1.17;;;;;;;22.42;41.92;100008.88;1783100;79;21369;-55
2021/09/10 09:48:43;;;;;;;5.30;1.60;;;;;;;22.45;40.90;100006.37;1769312;79;21010;-55
2021/09/10 09:51:11;;;;;;;4.53;2.12;;;;;;;22.45;40.70;100008.61;1773623;79;20993;-54
2021/09/10 09:53:39;;;;;;;7.53;1.40;;;;;;;22.42;40.61;100001.16;1756452;80;23242;-56
2021/09/10 09:56:09;;;;;;;4.17;1.20;;;;;;;22.40;41.30;100000.42;1763538;80;20950;-56
2021/09/10 09:58:36;;;;;;;5.87;1.50;;;;;;;22.39;41.52;100005.55;1758853;80;21022;-55
2021/09/10 10:01:03;;;;;;;4.55;1.10;;;;;;;22.42;42.65;100001.16;1777290;79;20944;-56
2021/09/10 10:03:29;;;;;;;1.80;1.37;;;;;;;22.48;42.01;100001.45;1749010;80;20914;-55
2021/09/10 10:06:05;;;;;;;1.62;1.20;;;;;;;22.54;42.23;100000.02;1751629;80;21135;-56
2021/09/10 10:08:48;;;;;;;2.40;1.22;;;;;;;22.60;41.23;99996.69;1775271;79;20922;-56
2021/09/10 10:11:25;;;;;;;6.40;1.30;;;;;;;22.67;40.65;99994.23;1781362;79;21283;-56
2021/09/10 10:13:57;;;;;;;3.02;1.27;;;;;;;22.73;40.95;99993.64;1778887;79;20910;-56
2021/09/10 10:16:41;;;;;;;5.67;1.47;;;;;;;22.78;40.23;99989.50;1777263;79;20962;-55
2021/09/10 10:19:25;;;;;;;3.47;1.22;;;;;;;22.85;39.67;99990.64;1778497;79;21220;-56
2021/09/10 10:22:08;;;;;;;3.58;1.22;;;;;;;22.89;39.55;99988.45;1757764;80;20942;-55
2021/09/10 10:24:52;;;;;;;2.50;1.20;;;;;;;22.90;38.53;99987.45;1771945;79;20840;-56
2021/09/10 10:27:43;;;;;;;2.72;1.57;;;;;;;22.90;38.24;99990.19;1758823;80;21685;-55
2021/09/10 10:30:36;;;;;;;2.83;1.20;;;;;;;22.88;38.63;99986.22;1761519;80;21074;-55
2021/09/10 10:33:21;;;;;;;7.50;1.45;;;;;;;22.90;39.01;99979.21;1683553;83;21110;-55
2021/09/10 10:35:48;;;;;;;2.72;1.10;;;;;;;22.91;39.15;99982.32;1729633;80;21010;-56
2021/09/10 10:38:14;;;;;;;4.83;1.65;;;;;;;22.92;38.92;99973.08;1763041;80;20930;-56
2021/09/10 10:40:55;;;;;;;3.00;1.40;;;;;;;22.95;38.18;99978.28;1737038;82;20910;-56
2021/09/10 10:43:29;;;;;;;3.08;1.07;;;;;;;22.98;38.65;99973.85;1722167;82;20966;-56
2021/09/10 10:46:08;;;;;;;2.80;1.32;;;;;;;23.03;37.54;99970.67;1766034;80;21096;-56
2021/09/10 10:48:44;;;;;;;4.37;1.57;;;;;;;23.06;37.62;99964.88;1731020;80;21393;-55
2021/09/10 10:51:21;;;;;;;4.97;1.45;;;;;;;23.09;37.80;99961.34;1764745;80;21485;-55
2021/09/10 10:53:55;;;;;;;5.20;1.00;;;;;;;23.12;37.88;99954.19;1732138;82;20994;-56
2021/09/10 10:56:33;;;;;;;2.20;1.20;;;;;;;23.16;38.06;99954.73;1766799;80;20935;-56
2021/09/10 10:59:19;;;;;;;3.83;1.00;;;;;;;23.17;36.56;99960.08;1752682;80;21126;-56
2021/09/10 11:02:28;;;;;;;4.00;1.67;;;;;;;23.16;37.09;99956.97;1759990;80;21034;-56
2021/09/10 11:04:53;;;;;;;10.03;1.20;;;;;;;23.18;37.98;99950.84;1746485;80;21069;-55
2021/09/10 11:07:23;;;;;;;2.83;1.45;;;;;;;23.22;38.62;99955.00;1741254;80;21124;-55
2021/09/10 11:10:14;;;;;;;2.83;1.40;;;;;;;23.26;38.69;99942.71;1731812;80;21097;-56
2021/09/10 11:12:45;;;;;;;5.37;1.90;;;;;;;23.30;37.38;99939.17;1760372;79;21015;-56
2021/09/10 11:15:31;;;;;;;2.40;1.20;;;;;;;23.31;37.62;99938.99;1719689;82;21175;-56
2021/09/10 11:18:07;;;;;;;5.08;1.57;;;;;;;23.33;37.91;99939.72;1765380;80;20891;-55
2021/09/10 11:20:45;;;;;;;2.67;1.05;;;;;;;23.36;37.47;99940.80;1762717;80;20960;-56
2021/09/10 11:23:36;;;;;;;2.37;1.12;;;;;;;23.37;36.39;99945.28;1758076;80;21019;-56
2021/09/10 11:25:59;;;;;;;1.65;1.20;;;;;;;23.37;36.18;99939.79;1746692;80;21143;-57
2021/09/10 11:28:31;;;;;;;4.60;1.10;;;;;;;23.38;35.38;99937.41;1767635;79;21078;-57
2021/09/10 11:30:57;;;;;;;5.60;2.17;;;;;;;23.39;35.51;99936.89;1754188;80;21100;-56
2021/09/10 11:33:24;;;;;;;4.30;1.25;;;;;;;23.40;35.22;99933.10;1759047;80;21045;-56